Time;durP1;ratioP1;P1;durP2;ratioP2;P2;SDS_P1;SDS_P2;PMS_P1;PMS_P2;Temp;Humidity;BMP_temperature;BMP_pressure;BME280_temperature;BME280_humidity;BME280_pressure;Samples;Min_cycle;Max_cycle;Signal;HPM_P1;HPM_P2
2022/08/20 00:01:06;;;;;;;20.45;12.30;;;;;;;15.81;100.00;96136.28;4990467;28;20086;-74
2022/08/20 00:03:36;;;;;;;19.20;11.07;;;;;;;15.81;100.00;96141.78;4990894;28;20406;-74
2022/08/20 00:06:08;;;;;;;16.38;10.35;;;;;;;15.74;100.00;96144.38;4990457;28;20046;-75
2022/08/20 00:08:36;;;;;;;15.93;9.57;;;;;;;15.77;100.00;96145.63;4990843;28;20050;-75
2022/08/20 00:11:05;;;;;;;17.63;10.10;;;;;;;15.72;100.00;96141.19;4990364;28;20046;-75
2022/08/20 00:13:43;;;;;;;15.32;9.15;;;;;;;15.76;100.00;96144.81;4990776;28;20049;-75
2022/08/20 00:16:11;;;;;;;15.65;9.20;;;;;;;15.80;100.00;96145.69;4990399;28;20054;-75
2022/08/20 00:18:40;;;;;;;22.00;12.20;;;;;;;15.88;100.00;96147.47;4989371;28;20054;-75
2022/08/20 00:21:11;;;;;;;16.60;8.98;;;;;;;15.78;100.00;96137.03;4989710;28;20117;-76
2022/08/20 00:23:37;;;;;;;14.50;9.30;;;;;;;15.78;100.00;96139.78;4990477;28;20489;-75
2022/08/20 00:26:05;;;;;;;16.27;9.13;;;;;;;15.81;100.00;96135.50;4989994;28;20058;-75
2022/08/20 00:28:32;;;;;;;15.32;9.07;;;;;;;15.79;100.00;96138.63;4990771;28;20046;-75
2022/08/20 00:30:58;;;;;;;15.80;10.35;;;;;;;15.80;100.00;96140.19;4990778;28;20053;-75
2022/08/20 00:33:25;;;;;;;15.88;10.15;;;;;;;15.80;100.00;96142.16;4990103;28;20490;-76
2022/08/20 00:35:55;;;;;;;17.58;10.35;;;;;;;15.90;100.00;96145.16;4991433;28;20057;-76
2022/08/20 00:38:23;;;;;;;15.68;10.48;;;;;;;15.97;100.00;96139.00;4993843;28;20049;-75
2022/08/20 00:40:52;;;;;;;14.18;9.60;;;;;;;15.96;100.00;96142.91;4994014;28;20421;-75
2022/08/20 00:43:33;;;;;;;15.55;9.70;;;;;;;15.97;100.00;96139.00;4993658;28;20049;-75
2022/08/20 00:46:01;;;;;;;16.77;10.43;;;;;;;15.91;100.00;96141.25;4994144;28;20069;-76
2022/08/20 00:48:30;;;;;;;17.48;11.20;;;;;;;15.82;100.00;96142.59;4994072;28;20048;-75
2022/08/20 00:51:05;;;;;;;18.77;10.85;;;;;;;15.81;100.00;96139.03;4992071;28;20051;-75
2022/08/20 00:53:35;;;;;;;16.13;10.38;;;;;;;15.89;100.00;96143.56;4993626;28;20038;-75
2022/08/20 00:56:02;;;;;;;16.33;10.75;;;;;;;15.94;100.00;96141.69;4993892;28;20046;-75
2022/08/20 00:58:29;;;;;;;19.05;11.73;;;;;;;15.95;100.00;96141.31;4993458;28;20046;-75
2022/08/20 01:00:56;;;;;;;17.23;11.40;;;;;;;15.96;100.00;96142.13;4993670;28;20042;-75
2022/08/20 01:03:23;;;;;;;18.42;11.32;;;;;;;15.90;100.00;96138.84;4993143;28;20061;-74
2022/08/20 01:05:51;;;;;;;21.13;12.52;;;;;;;15.91;100.00;96145.94;4993821;28;20050;-75
2022/08/20 01:08:21;;;;;;;18.13;11.82;;;;;;;15.99;100.00;96152.41;4993190;28;20042;-75
2022/08/20 01:10:52;;;;;;;18.98;12.45;;;;;;;15.99;100.00;96136.72;4993631;28;20061;-75
2022/08/20 01:13:24;;;;;;;19.85;12.70;;;;;;;15.90;100.00;96150.63;4993142;28;20050;-76
2022/08/20 01:15:54;;;;;;;17.47;11.93;;;;;;;15.88;100.00;96152.97;4993512;28;20120;-76
2022/08/20 01:18:24;;;;;;;18.05;11.43;;;;;;;15.87;100.00;96151.38;4993139;28;20274;-75
2022/08/20 01:20:55;;;;;;;20.10;12.82;;;;;;;15.85;100.00;96145.41;4993299;28;20046;-75
2022/08/20 01:23:28;;;;;;;21.23;12.80;;;;;;;15.87;100.00;96151.38;4992811;28;20046;-78
2022/08/20 01:26:01;;;;;;;25.42;13.23;;;;;;;15.97;100.00;96151.94;4993134;28;20112;-77
2022/08/20 01:28:34;;;;;;;22.27;12.98;;;;;;;15.87;100.00;96154.13;4993056;28;20125;-76
2022/08/20 01:31:00;;;;;;;20.25;12.57;;;;;;;15.79;100.00;96154.28;4993304;28;20662;-75
2022/08/20 01:33:27;;;;;;;26.45;14.43;;;;;;;15.76;100.00;96150.28;4992955;28;20039;-76
2022/08/20 01:35:54;;;;;;;21.98;12.82;;;;;;;15.72;100.00;96149.44;4993137;28;20053;-75
2022/08/20 01:38:20;;;;;;;20.42;13.40;;;;;;;15.80;100.00;96145.69;4991867;28;20610;-75
2022/08/20 01:41:07;;;;;;;23.02;13.25;;;;;;;15.82;100.00;96140.66;4993086;28;20433;-75
2022/08/20 01:43:34;;;;;;;24.83;14.07;;;;;;;15.77;100.00;96146.41;4992740;28;20046;-75
2022/08/20 01:46:01;;;;;;;25.10;14.30;;;;;;;15.80;100.00;96148.44;4992650;28;20058;-75
2022/08/20 01:48:28;;;;;;;21.20;13.80;;;;;;;15.85;100.00;96148.16;4992268;28;20038;-75
2022/08/20 01:51:03;;;;;;;25.13;14.32;;;;;;;15.83;100.00;96150.47;4992262;28;20038;-75
2022/08/20 01:53:32;;;;;;;26.10;15.00;;;;;;;15.88;100.00;96146.66;4992129;28;20494;-76
2022/08/20 01:56:01;;;;;;;24.60;14.45;;;;;;;15.86;100.00;96143.47;4992764;28;20054;-75
2022/08/20 01:58:28;;;;;;;25.02;14.60;;;;;;;15.89;100.00;96151.78;4992030;28;20042;-75
2022/08/20 02:00:55;;;;;;;19.60;12.48;;;;;;;16.03;100.00;96156.03;4992611;28;20057;-76
2022/08/20 02:03:22;;;;;;;20.73;12.10;;;;;;;16.07;100.00;96154.13;4992024;28;20053;-74
2022/08/20 02:05:48;;;;;;;25.00;14.15;;;;;;;15.98;100.00;96159.06;4992578;28;20046;-74
2022/08/20 02:08:15;;;;;;;20.00;12.32;;;;;;;16.01;100.00;96161.06;4991930;28;20046;-75
2022/08/20 02:10:45;;;;;;;19.33;12.38;;;;;;;16.08;100.00;96158.50;4992315;28;20061;-75
2022/08/20 02:13:14;;;;;;;21.10;12.55;;;;;;;16.06;100.00;96158.03;4992118;28;20046;-75
2022/08/20 02:15:41;;;;;;;20.85;12.38;;;;;;;16.04;100.00;96154.88;4992261;28;20046;-75
2022/08/20 02:18:11;;;;;;;19.77;12.85;;;;;;;16.11;100.00;96157.78;4991759;28;20108;-74
2022/08/20 02:20:39;;;;;;;20.20;12.65;;;;;;;16.11;100.00;96155.81;4992309;28;20049;-74
2022/08/20 02:23:06;;;;;;;20.98;13.13;;;;;;;16.16;100.00;96163.00;4991854;28;20046;-73
2022/08/20 02:25:35;;;;;;;20.63;13.10;;;;;;;16.12;100.00;96162.09;4991977;28;20053;-75
2022/08/20 02:28:06;;;;;;;17.90;11.65;;;;;;;16.08;100.00;96162.03;4991853;28;20054;-75
2022/08/20 02:30:37;;;;;;;18.58;12.27;;;;;;;16.06;100.00;96164.34;4992201;28;20547;-74
2022/08/20 02:33:08;;;;;;;19.52;12.57;;;;;;;15.96;100.00;96164.09;4991501;28;20042;-75
2022/08/20 02:35:35;;;;;;;19.13;12.38;;;;;;;15.93;100.00;96160.13;4992235;28;20066;-74
2022/08/20 02:38:02;;;;;;;19.08;11.55;;;;;;;16.03;100.00;96169.78;4991828;28;20043;-74
2022/08/20 02:40:30;;;;;;;19.00;12.35;;;;;;;16.04;100.00;96168.59;4991664;28;20097;-75
2022/08/20 02:42:57;;;;;;;24.95;13.75;;;;;;;15.96;100.00;96164.09;4991972;28;20050;-74
2022/08/20 02:45:24;;;;;;;24.00;13.02;;;;;;;15.84;100.00;96168.53;4991544;28;20042;-75
2022/08/20 02:47:54;;;;;;;18.13;12.20;;;;;;;15.90;100.00;96167.13;4991806;28;20045;-74
2022/08/20 02:50:22;;;;;;;19.85;12.02;;;;;;;15.87;100.00;96167.84;4991433;28;20050;-73
2022/08/20 02:52:50;;;;;;;21.45;11.73;;;;;;;15.87;100.00;96167.84;4991774;28;20046;-74
2022/08/20 02:55:16;;;;;;;26.60;13.70;;;;;;;15.68;100.00;96176.00;4991025;28;20042;-74
2022/08/20 02:57:44;;;;;;;27.60;14.32;;;;;;;15.62;100.00;96178.19;4991864;28;20050;-74
2022/08/20 03:00:14;;;;;;;34.78;15.38;;;;;;;15.50;100.00;96164.53;4990449;28;20505;-73
2022/08/20 03:02:41;;;;;;;23.42;14.15;;;;;;;15.51;100.00;96165.34;4991565;28;20097;-74
2022/08/20 03:05:10;;;;;;;32.80;14.82;;;;;;;15.37;100.00;96172.06;4991223;28;20046;-73
2022/08/20 03:07:41;;;;;;;29.40;14.73;;;;;;;15.34;100.00;96161.78;4991590;28;20104;-74
2022/08/20 03:10:09;;;;;;;26.08;14.10;;;;;;;15.29;100.00;96167.53;4991275;28;20050;-74
2022/08/20 03:12:37;;;;;;;24.50;14.60;;;;;;;15.28;100.00;96162.41;4991179;28;20521;-74
2022/08/20 03:15:04;;;;;;;29.50;15.25;;;;;;;15.26;100.00;96165.50;4991308;28;20417;-75
2022/08/20 03:17:31;;;;;;;27.95;15.27;;;;;;;15.37;100.00;96166.56;4991351;28;20046;-75
2022/08/20 03:19:57;;;;;;;27.35;15.40;;;;;;;15.43;100.00;96169.06;4991286;28;20042;-74
2022/08/20 03:22:25;;;;;;;25.63;14.40;;;;;;;15.52;100.00;96161.47;4990946;28;20413;-75
2022/08/20 03:24:52;;;;;;;30.52;15.40;;;;;;;15.52;100.00;96166.94;4991213;28;20057;-75
2022/08/20 03:27:18;;;;;;;23.60;13.77;;;;;;;15.62;100.00;96166.41;4990665;28;20076;-74
2022/08/20 03:29:45;;;;;;;25.38;14.02;;;;;;;15.66;100.00;96161.84;4991475;28;20046;-76
2022/08/20 03:32:11;;;;;;;24.67;14.07;;;;;;;15.74;100.00;96165.53;4990287;28;20046;-74
2022/08/20 03:34:38;;;;;;;19.98;13.02;;;;;;;15.80;100.00;96164.91;4991056;28;20045;-74
2022/08/20 03:37:04;;;;;;;22.00;14.07;;;;;;;15.79;100.00;96171.56;4990696;28;20054;-74
2022/08/20 03:39:32;;;;;;;22.05;13.95;;;;;;;15.83;100.00;96166.16;4991275;28;20049;-74
2022/08/20 03:41:59;;;;;;;26.20;15.18;;;;;;;15.76;100.00;96172.25;4991184;28;20050;-74
2022/08/20 03:44:26;;;;;;;19.88;13.45;;;;;;;15.83;100.00;96177.16;4990314;28;20490;-76
2022/08/20 03:46:52;;;;;;;23.80;14.40;;;;;;;15.90;100.00;96189.09;4991047;28;20054;-75
2022/08/20 03:49:19;;;;;;;22.95;13.70;;;;;;;15.90;100.00;96186.34;4990272;28;20054;-75
2022/08/20 03:51:46;;;;;;;24.05;15.38;;;;;;;15.82;100.00;96181.84;4990912;28;20046;-75
2022/08/20 03:54:12;;;;;;;23.10;13.05;;;;;;;15.89;100.00;96176.50;4990516;28;20208;-75
2022/08/20 03:56:40;;;;;;;25.73;15.13;;;;;;;15.89;100.00;96182.00;4990988;28;20494;-75
2022/08/20 03:59:07;;;;;;;27.67;15.75;;;;;;;15.97;100.00;96187.66;4990324;28;20047;-74
2022/08/20 04:01:33;;;;;;;27.88;16.77;;;;;;;15.99;100.00;96191.66;4990606;28;20042;-74
2022/08/20 04:04:00;;;;;;;30.23;16.33;;;;;;;15.95;100.00;96187.22;4990835;28;20085;-74
2022/08/20 04:06:28;;;;;;;27.27;16.52;;;;;;;15.98;100.00;96183.78;4990247;28;20627;-75
2022/08/20 04:08:54;;;;;;;29.98;17.35;;;;;;;16.03;100.00;96191.75;4990598;28;20054;-75
2022/08/20 04:11:21;;;;;;;30.17;17.70;;;;;;;16.04;100.00;96185.88;4993681;28;20049;-74
2022/08/20 04:13:49;;;;;;;26.65;16.77;;;;;;;15.96;100.00;96186.84;4994918;28;20047;-74
2022/08/20 04:16:16;;;;;;;28.63;16.52;;;;;;;15.99;100.00;96190.84;4994286;28;20057;-75
2022/08/20 04:18:42;;;;;;;28.50;17.90;;;;;;;15.90;100.00;96191.81;4994348;28;20509;-74
2022/08/20 04:21:09;;;;;;;25.70;16.15;;;;;;;15.90;100.00;96194.56;4994072;28;20074;-74
2022/08/20 04:23:35;;;;;;;31.83;18.35;;;;;;;15.97;100.00;96198.63;4994316;28;20054;-75
2022/08/20 04:26:02;;;;;;;31.35;17.95;;;;;;;15.99;100.00;96190.84;4994127;28;20050;-73
2022/08/20 04:28:29;;;;;;;45.28;24.45;;;;;;;16.01;100.00;96191.28;4994552;28;20050;-74
2022/08/20 04:30:59;;;;;;;50.53;26.13;;;;;;;16.06;100.00;96199.25;4994507;28;20100;-75
2022/08/20 04:33:26;;;;;;;56.22;27.58;;;;;;;16.08;100.00;96194.22;4993877;28;20493;-74
2022/08/20 04:35:53;;;;;;;61.92;29.52;;;;;;;16.14;100.00;96192.78;4993794;28;20042;-75
2022/08/20 04:38:21;;;;;;;65.18;32.40;;;;;;;16.08;100.00;96183.22;4993893;28;20046;-74
2022/08/20 04:40:56;;;;;;;69.80;33.47;;;;;;;16.08;100.00;96189.50;4994462;28;20494;-74
2022/08/20 04:43:25;;;;;;;73.25;35.15;;;;;;;16.08;100.00;96183.22;4993834;28;20050;-74
2022/08/20 04:45:52;;;;;;;67.60;33.55;;;;;;;16.15;100.00;96180.63;4994074;28;20050;-74
2022/08/20 04:48:23;;;;;;;73.88;36.53;;;;;;;16.04;100.00;96187.84;4993302;28;20498;-73
2022/08/20 04:50:51;;;;;;;69.88;34.67;;;;;;;16.13;100.00;96191.16;4994163;28;20059;-74
2022/08/20 04:53:19;;;;;;;78.43;36.70;;;;;;;16.12;100.00;96195.06;4993741;28;20050;-73
2022/08/20 04:55:47;;;;;;;76.68;38.42;;;;;;;16.17;100.00;96201.06;4994052;28;20043;-74
2022/08/20 04:58:17;;;;;;;69.55;35.05;;;;;;;16.18;100.00;96210.13;4993586;28;20560;-74
2022/08/20 05:00:46;;;;;;;69.10;34.65;;;;;;;16.22;100.00;96202.75;4994153;28;20046;-76
2022/08/20 05:03:13;;;;;;;69.93;34.55;;;;;;;16.17;100.00;96209.31;4993326;28;20093;-74
2022/08/20 05:05:41;;;;;;;64.40;33.30;;;;;;;16.22;100.00;96210.22;4993729;28;20050;-73
2022/08/20 05:08:07;;;;;;;69.93;35.05;;;;;;;16.26;100.00;96214.63;4993219;28;20043;-74
2022/08/20 05:10:37;;;;;;;64.05;32.70;;;;;;;16.38;100.00;96224.69;4993798;28;20054;-74
2022/08/20 05:13:04;;;;;;;69.55;35.40;;;;;;;16.28;100.00;96220.56;4993284;28;20093;-73
2022/08/20 05:15:30;;;;;;;64.68;33.63;;;;;;;16.27;100.00;96229.16;4993471;28;20046;-76
2022/08/20 05:18:01;;;;;;;67.50;35.08;;;;;;;16.24;100.00;96225.19;4993660;28;20049;-73
2022/08/20 05:20:30;;;;;;;78.65;37.58;;;;;;;16.17;100.00;96231.31;4993295;28;20050;-74
2022/08/20 05:22:59;;;;;;;79.05;37.47;;;;;;;16.22;100.00;96232.19;4992999;28;20449;-74
2022/08/20 05:25:28;;;;;;;84.68;40.05;;;;;;;16.20;100.00;96229.81;4992966;28;20046;-74
2022/08/20 05:27:59;;;;;;;70.53;36.10;;;;;;;16.27;100.00;96240.94;4993283;28;20050;-74
2022/08/20 05:30:28;;;;;;;76.82;38.30;;;;;;;16.18;100.00;96237.59;4993020;28;20057;-74
2022/08/20 05:32:55;;;;;;;85.78;40.00;;;;;;;16.22;100.00;96232.97;4993059;28;20046;-74
2022/08/20 05:35:21;;;;;;;68.10;34.47;;;;;;;16.31;100.00;96236.34;4992725;28;20057;-74
2022/08/20 05:37:48;;;;;;;78.25;38.05;;;;;;;16.27;100.00;96240.94;4993193;28;20053;-75
2022/08/20 05:40:16;;;;;;;70.53;35.28;;;;;;;16.36;100.00;96244.31;4992592;28;20047;-74
2022/08/20 05:42:42;;;;;;;71.78;35.90;;;;;;;16.39;100.00;96249.09;4992974;28;20057;-74
2022/08/20 05:45:10;;;;;;;68.15;35.42;;;;;;;16.42;100.00;96248.38;4992314;28;20043;-74
2022/08/20 05:47:39;;;;;;;75.03;35.22;;;;;;;16.36;100.00;96249.81;4992928;28;20059;-74
2022/08/20 05:50:08;;;;;;;64.25;33.75;;;;;;;16.43;100.00;96249.16;4992356;28;20073;-74
2022/08/20 05:52:36;;;;;;;67.53;34.63;;;;;;;16.48;100.00;96256.34;4993037;28;20043;-74
2022/08/20 05:55:03;;;;;;;61.20;33.08;;;;;;;16.43;100.00;96249.16;4992498;28;20058;-74
2022/08/20 05:57:31;;;;;;;67.78;34.47;;;;;;;16.41;100.00;96257.78;4992812;28;20061;-75
2022/08/20 05:59:59;;;;;;;66.13;34.45;;;;;;;16.52;100.00;96258.00;4992886;28;20050;-74
2022/08/20 06:05:10;;;;;;;63.40;33.97;;;;;;;16.53;100.00;96254.09;4992501;28;20413;-74
2022/08/20 06:07:37;;;;;;;67.25;33.70;;;;;;;16.58;100.00;96251.06;4992658;28;20046;-74
2022/08/20 06:10:04;;;;;;;66.53;32.97;;;;;;;16.53;100.00;96248.59;4992325;28;20054;-74
2022/08/20 06:12:32;;;;;;;58.33;32.15;;;;;;;16.59;100.00;96258.16;4992487;28;20046;-75
2022/08/20 06:15:00;;;;;;;63.47;33.63;;;;;;;16.60;100.00;96264.44;4992555;28;20406;-74
2022/08/20 06:17:28;;;;;;;64.47;31.80;;;;;;;16.62;100.00;96262.16;4991925;28;20046;-74
2022/08/20 06:19:55;;;;;;;53.53;30.52;;;;;;;16.59;100.00;96269.16;4992285;28;20077;-73
2022/08/20 06:22:21;;;;;;;59.63;30.83;;;;;;;16.64;100.00;96270.84;4992003;28;20050;-74
2022/08/20 06:24:48;;;;;;;59.58;31.98;;;;;;;16.54;100.00;96268.63;4992273;28;20061;-74
2022/08/20 06:27:16;;;;;;;61.70;30.60;;;;;;;16.59;100.00;96263.66;4991675;28;20049;-74
2022/08/20 06:29:44;;;;;;;55.10;30.75;;;;;;;16.57;100.00;96267.94;4992207;28;20054;-74
2022/08/20 06:32:11;;;;;;;58.80;31.48;;;;;;;16.54;100.00;96266.69;4991551;28;20073;-74
2022/08/20 06:34:37;;;;;;;51.97;30.40;;;;;;;16.43;100.00;96274.69;4991096;28;20042;-74
2022/08/20 06:37:14;;;;;;;54.45;30.13;;;;;;;16.54;100.00;96272.19;4991577;28;20050;-74
2022/08/20 06:39:41;;;;;;;58.55;29.83;;;;;;;16.51;100.00;96278.41;4992038;28;20038;-75
2022/08/20 06:42:08;;;;;;;59.92;31.38;;;;;;;16.56;100.00;96274.59;4991617;28;20050;-74
2022/08/20 06:44:35;;;;;;;60.22;31.05;;;;;;;16.53;100.00;96270.59;4991721;28;20038;-74
2022/08/20 06:47:04;;;;;;;54.00;30.23;;;;;;;16.53;100.00;96278.84;4991583;28;20050;-74
2022/08/20 06:49:30;;;;;;;54.63;29.30;;;;;;;16.51;100.00;96272.13;4991557;28;20577;-74
2022/08/20 06:51:57;;;;;;;57.13;30.17;;;;;;;16.51;100.00;96278.41;4991985;28;20138;-74
2022/08/20 06:54:24;;;;;;;54.95;30.20;;;;;;;16.42;100.00;96275.84;4991255;28;20053;-73
2022/08/20 06:56:53;;;;;;;55.80;29.55;;;;;;;16.43;100.00;96280.19;4991823;28;20088;-74
2022/08/20 06:59:19;;;;;;;52.83;29.88;;;;;;;16.43;100.00;96282.94;4991129;28;20579;-74
2022/08/20 07:01:48;;;;;;;53.53;29.42;;;;;;;16.44;100.00;96290.03;4991641;28;20069;-75
2022/08/20 07:04:16;;;;;;;54.75;29.83;;;;;;;16.47;100.00;96290.47;4991213;28;20125;-75
2022/08/20 07:06:43;;;;;;;49.63;29.38;;;;;;;16.58;100.00;96286.81;4991600;28;20046;-75
2022/08/20 07:09:09;;;;;;;48.20;26.48;;;;;;;16.59;100.00;96295.84;4990881;28;20454;-74
2022/08/20 07:11:36;;;;;;;49.25;28.13;;;;;;;16.57;100.00;96296.22;4991482;28;20134;-74
2022/08/20 07:14:04;;;;;;;47.03;26.10;;;;;;;16.59;100.00;96291.16;4990937;28;20390;-74
2022/08/20 07:16:31;;;;;;;56.83;28.83;;;;;;;16.58;100.00;96294.25;4991408;28;20042;-74
2022/08/20 07:18:58;;;;;;;50.30;27.83;;;;;;;16.56;100.00;96297.38;4990843;28;20517;-74
2022/08/20 07:21:26;;;;;;;54.63;28.40;;;;;;;16.56;100.00;96293.84;4990792;28;20101;-74
2022/08/20 07:23:52;;;;;;;54.28;28.23;;;;;;;16.60;100.00;96297.44;4991381;28;20425;-75
2022/08/20 07:26:19;;;;;;;52.85;27.67;;;;;;;16.61;100.00;96288.84;4990434;28;20042;-74
2022/08/20 07:28:46;;;;;;;46.03;26.70;;;;;;;16.64;100.00;96299.13;4991113;28;20054;-75
2022/08/20 07:33:55;;;;;;;;;;;;;;;16.66;100.00;96296.03;4970725;28;20124;-74
2022/08/20 07:36:22;;;;;;;45.25;26.65;;;;;;;16.65;100.00;96295.22;4990852;28;19933;-74
2022/08/20 07:38:51;;;;;;;47.28;27.30;;;;;;;16.65;100.00;96305.41;4991089;28;20050;-74
2022/08/20 07:41:19;;;;;;;47.35;25.85;;;;;;;16.66;100.00;96309.78;4990745;28;20080;-74
2022/08/20 07:43:47;;;;;;;46.15;26.00;;;;;;;16.63;100.00;96307.72;4990947;28;20057;-74
2022/08/20 07:46:15;;;;;;;46.30;26.13;;;;;;;16.66;100.00;96309.78;4990203;28;20046;-74
2022/08/20 07:48:45;;;;;;;52.05;27.58;;;;;;;16.64;100.00;96310.13;4990959;28;20244;-74
2022/08/20 07:51:12;;;;;;;49.97;26.48;;;;;;;16.57;100.00;96309.97;4971188;28;20089;-74
2022/08/20 07:53:40;;;;;;;46.60;26.42;;;;;;;16.62;100.00;96308.88;4971745;28;20039;-75
2022/08/20 07:56:11;;;;;;;47.85;26.30;;;;;;;16.66;100.00;96310.56;4971019;28;20055;-74
2022/08/20 07:58:41;;;;;;;50.78;27.42;;;;;;;16.66;100.00;96318.03;4971310;28;20043;-74
2022/08/20 08:01:10;;;;;;;45.28;26.45;;;;;;;16.64;100.00;96312.06;4971296;28;20058;-74
2022/08/20 08:03:37;;;;;;;43.92;25.90;;;;;;;16.66;100.00;96310.56;4971758;28;20042;-74
2022/08/20 08:06:04;;;;;;;42.08;23.52;;;;;;;16.74;100.00;96317.03;4971100;28;20102;-73
2022/08/20 08:08:33;;;;;;;40.30;25.10;;;;;;;16.73;100.00;96317.41;4971121;28;20054;-74
2022/08/20 08:11:03;;;;;;;38.58;23.98;;;;;;;16.70;100.00;96313.38;4971569;28;20057;-74
2022/08/20 08:13:35;;;;;;;41.10;24.38;;;;;;;16.65;100.00;96316.41;4970940;28;20659;-74
2022/08/20 08:16:04;;;;;;;44.15;24.95;;;;;;;16.73;100.00;96320.97;4971716;28;20055;-73
2022/08/20 08:18:36;;;;;;;42.40;25.10;;;;;;;16.76;100.00;96325.75;4970831;28;20130;-75
2022/08/20 08:21:04;;;;;;;42.03;24.38;;;;;;;16.79;100.00;96333.25;4989022;28;20073;-74
2022/08/20 08:23:33;;;;;;;43.83;24.17;;;;;;;16.79;100.00;96333.25;4990632;28;20073;-74
2022/08/20 08:26:00;;;;;;;40.60;24.50;;;;;;;16.81;100.00;96330.16;4990503;28;20046;-74
2022/08/20 08:28:29;;;;;;;40.55;24.25;;;;;;;16.79;100.00;96338.75;4990307;28;20049;-74
2022/08/20 08:30:57;;;;;;;40.95;23.75;;;;;;;16.76;100.00;96341.44;4990759;28;20046;-74
2022/08/20 08:33:29;;;;;;;42.13;24.77;;;;;;;16.83;100.00;96349.84;4990061;28;20697;-74
2022/08/20 08:35:57;;;;;;;47.90;25.17;;;;;;;16.92;100.00;96347.72;4990736;28;20135;-74
2022/08/20 08:38:25;;;;;;;43.78;25.85;;;;;;;16.99;100.00;96347.84;4989802;28;20086;-74
2022/08/20 08:40:54;;;;;;;44.80;25.45;;;;;;;16.95;100.00;96345.00;4990693;28;20112;-73
2022/08/20 08:43:23;;;;;;;40.03;23.60;;;;;;;16.86;100.00;96355.44;4989822;28;20409;-75
2022/08/20 08:45:56;;;;;;;38.13;23.17;;;;;;;16.92;100.00;96359.50;4990489;28;20050;-74
2022/08/20 08:48:31;;;;;;;37.00;22.48;;;;;;;16.89;100.00;96357.47;4990149;28;20048;-74
2022/08/20 08:50:59;;;;;;;33.97;20.33;;;;;;;16.51;100.00;96366.38;4990722;28;20093;-73
2022/08/20 08:53:30;;;;;;;32.55;20.50;;;;;;;16.56;100.00;96360.59;4990075;28;20042;-74
2022/08/20 08:55:58;;;;;;;32.78;19.70;;;;;;;16.62;100.00;96366.63;4990455;28;20054;-74
2022/08/20 08:58:26;;;;;;;33.65;20.05;;;;;;;16.58;100.00;96365.72;4992863;28;20050;-74
2022/08/20 09:00:53;;;;;;;40.17;22.63;;;;;;;16.58;100.00;96371.22;4993954;28;20076;-74
2022/08/20 09:03:28;;;;;;;36.47;22.13;;;;;;;16.64;100.00;96369.81;4993493;28;20053;-74
2022/08/20 09:05:58;;;;;;;39.58;22.85;;;;;;;16.62;100.00;96366.63;4993846;28;20057;-74
2022/08/20 09:08:29;;;;;;;40.45;22.80;;;;;;;16.55;100.00;96366.44;4993494;28;20042;-74
2022/08/20 09:11:03;;;;;;;41.97;24.80;;;;;;;16.59;100.00;96367.31;4993623;28;20046;-76
2022/08/20 09:13:29;;;;;;;42.80;25.92;;;;;;;16.62;100.00;96372.13;4993374;28;20050;-75
2022/08/20 09:15:56;;;;;;;46.00;25.75;;;;;;;16.70;100.00;96385.69;4993510;28;20061;-73
2022/08/20 09:18:22;;;;;;;47.25;25.80;;;;;;;16.71;100.00;96386.53;4992786;28;20042;-75
2022/08/20 09:20:50;;;;;;;38.97;24.73;;;;;;;16.73;100.00;96381.44;4993418;28;20053;-75
2022/08/20 09:23:17;;;;;;;47.55;25.52;;;;;;;16.57;100.00;96386.13;4992839;28;20046;-74
2022/08/20 09:25:44;;;;;;;41.60;24.45;;;;;;;16.52;100.00;96383.66;4993245;28;20147;-74
2022/08/20 09:28:10;;;;;;;45.63;23.67;;;;;;;16.45;100.00;96389.78;4993263;28;20083;-74
2022/08/20 09:30:37;;;;;;;40.97;24.33;;;;;;;16.47;100.00;96381.19;4993335;28;20049;-74
2022/08/20 09:33:03;;;;;;;46.95;25.83;;;;;;;16.59;100.00;96378.31;4992717;28;20050;-74
2022/08/20 09:35:30;;;;;;;42.65;24.35;;;;;;;16.57;100.00;96386.13;4993254;28;20038;-74
2022/08/20 09:37:58;;;;;;;41.90;23.85;;;;;;;16.62;100.00;96377.63;4993206;28;20077;-74
2022/08/20 09:40:24;;;;;;;40.40;24.27;;;;;;;16.64;100.00;96378.84;4992558;28;20042;-74
2022/08/20 09:42:51;;;;;;;44.50;24.80;;;;;;;16.66;100.00;96379.31;4993085;28;20046;-74
2022/08/20 09:45:19;;;;;;;45.22;24.60;;;;;;;16.70;100.00;96379.38;4992523;28;20109;-74
2022/08/20 09:47:45;;;;;;;43.67;24.52;;;;;;;16.70;100.00;96384.88;4992926;28;20066;-74
2022/08/20 09:50:12;;;;;;;41.25;23.85;;;;;;;16.65;100.00;96388.72;4992273;28;20054;-74
2022/08/20 09:52:43;;;;;;;44.72;25.52;;;;;;;16.70;100.00;96380.19;4992782;28;20046;-74
2022/08/20 09:55:19;;;;;;;42.95;25.33;;;;;;;16.81;100.00;96380.47;4992550;28;20050;-74
2022/08/20 09:57:47;;;;;;;45.08;26.10;;;;;;;16.79;100.00;96387.47;4992598;28;20049;-75
2022/08/20 10:00:14;;;;;;;41.20;24.80;;;;;;;16.85;100.00;96386.03;4992456;28;20050;-76
2022/08/20 10:02:41;;;;;;;41.33;24.15;;;;;;;16.87;100.00;96379.03;4992525;28;20508;-76
2022/08/20 10:05:09;;;;;;;39.38;23.33;;;;;;;16.90;100.00;96377.50;4991949;28;20057;-76
2022/08/20 10:07:36;;;;;;;43.10;25.30;;;;;;;16.81;100.00;96377.72;4992636;28;20053;-75
2022/08/20 10:10:04;;;;;;;42.53;24.70;;;;;;;16.86;100.00;96387.63;4991918;28;20054;-75
2022/08/20 10:12:32;;;;;;;42.75;24.33;;;;;;;16.85;100.00;96386.81;4992587;28;20053;-75
2022/08/20 10:14:59;;;;;;;49.33;27.40;;;;;;;16.93;100.00;96387.81;4992435;28;20077;-76
2022/08/20 10:17:25;;;;;;;43.10;24.13;;;;;;;16.81;100.00;96391.47;4991937;28;20057;-76
2022/08/20 10:19:52;;;;;;;37.50;23.50;;;;;;;16.64;100.00;96391.78;4992126;28;20042;-73
2022/08/20 10:22:18;;;;;;;35.85;22.20;;;;;;;16.59;100.00;96384.63;4992138;28;20498;-74
2022/08/20 10:24:45;;;;;;;36.95;22.40;;;;;;;16.55;100.00;96386.50;4992163;28;20528;-75
2022/08/20 10:27:11;;;;;;;39.40;24.02;;;;;;;16.48;100.00;96388.25;4991653;28;20058;-74
2022/08/20 10:29:39;;;;;;;38.30;23.20;;;;;;;16.47;100.00;96392.16;4992245;28;20050;-74
2022/08/20 10:32:10;;;;;;;41.97;24.88;;;;;;;16.60;100.00;96388.16;4992078;28;20049;-74
2022/08/20 10:34:37;;;;;;;43.97;25.38;;;;;;;16.72;100.00;96393.59;4991728;28;20081;-74
2022/08/20 10:37:04;;;;;;;41.13;24.05;;;;;;;16.81;100.00;96388.72;4991535;28;20050;-74
2022/08/20 10:39:30;;;;;;;40.95;24.55;;;;;;;16.74;100.00;96385.78;4992079;28;20046;-75
2022/08/20 10:41:57;;;;;;;40.85;24.77;;;;;;;16.72;100.00;96382.59;4991873;28;20050;-74
2022/08/20 10:44:23;;;;;;;36.35;22.58;;;;;;;16.70;100.00;96395.88;4991681;28;20060;-74
2022/08/20 10:46:51;;;;;;;36.85;24.17;;;;;;;16.58;100.00;96393.22;4991996;28;20498;-74
2022/08/20 10:49:18;;;;;;;41.70;23.65;;;;;;;16.60;100.00;96391.72;4991278;28;20053;-75
2022/08/20 10:51:44;;;;;;;34.25;22.15;;;;;;;16.61;100.00;96398.03;4991957;28;20051;-74
2022/08/20 10:54:11;;;;;;;35.63;22.33;;;;;;;16.64;100.00;96398.09;4991435;28;20053;-78
2022/08/20 10:56:37;;;;;;;36.67;22.88;;;;;;;16.68;100.00;96398.19;4992035;28;20051;-75
2022/08/20 10:59:04;;;;;;;37.13;23.15;;;;;;;16.74;100.00;96394.03;4991414;28;20053;-73
2022/08/20 11:01:30;;;;;;;42.88;27.25;;;;;;;16.73;100.00;96392.44;4991746;28;20042;-74
2022/08/20 11:03:58;;;;;;;37.30;23.73;;;;;;;16.61;100.00;96387.03;4991722;28;20057;-74
2022/08/20 11:06:24;;;;;;;35.80;22.40;;;;;;;16.62;100.00;96389.41;4990956;28;20406;-74
2022/08/20 11:08:51;;;;;;;39.22;24.40;;;;;;;16.51;100.00;96387.56;4991660;28;20070;-75
2022/08/20 11:11:17;;;;;;;36.58;23.30;;;;;;;16.40;100.00;96382.59;4991183;28;20054;-74
2022/08/20 11:13:44;;;;;;;39.28;23.88;;;;;;;16.57;100.00;96380.63;4991729;28;20058;-74
2022/08/20 11:16:10;;;;;;;39.17;24.95;;;;;;;16.66;100.00;96382.06;4991045;28;20133;-74
2022/08/20 11:18:37;;;;;;;39.75;23.13;;;;;;;16.65;100.00;96387.88;4991198;28;20038;-74